createdAt,value
2018-05-21T00:02:11.900Z,66.20
2018-05-21T00:04:40.192Z,66.90
2018-05-21T00:07:07.684Z,66.80
2018-05-21T00:09:35.206Z,67.00
2018-05-21T00:12:02.704Z,67.20
2018-05-21T00:14:30.218Z,67.70
2018-05-21T00:16:57.761Z,69.90
2018-05-21T00:19:26.247Z,70.40
2018-05-21T00:21:53.775Z,70.40
2018-05-21T00:24:21.279Z,69.20
2018-05-21T00:26:48.817Z,67.70
2018-05-21T00:29:17.111Z,70.10
2018-05-21T00:31:44.643Z,70.10
2018-05-21T00:34:12.128Z,69.00
2018-05-21T00:36:39.615Z,69.30
2018-05-21T00:39:07.084Z,67.90
2018-05-21T00:41:34.593Z,68.20
2018-05-21T00:44:02.141Z,68.80
2018-05-21T00:46:30.471Z,68.80
2018-05-21T00:48:57.965Z,68.70
2018-05-21T00:51:25.474Z,70.00
2018-05-21T00:53:53.000Z,72.10
2018-05-21T00:56:21.291Z,69.50
2018-05-21T00:58:48.783Z,69.40
2018-05-21T01:01:16.368Z,70.00
2018-05-21T01:03:43.949Z,67.60
2018-05-21T01:06:12.230Z,69.40
2018-05-21T01:08:40.519Z,70.00
2018-05-21T01:11:10.718Z,69.80
2018-05-21T01:13:38.211Z,69.80
2018-05-21T01:16:05.717Z,69.60
2018-05-21T01:18:33.295Z,69.30
2018-05-21T01:21:01.596Z,68.60
2018-05-21T01:23:29.127Z,68.50
2018-05-21T01:25:56.699Z,67.00
2018-05-21T01:28:25.025Z,67.00
2018-05-21T01:30:52.893Z,66.90
2018-05-21T01:33:20.369Z,65.80
2018-05-21T01:35:47.851Z,65.00
2018-05-21T01:38:16.139Z,65.20
2018-05-21T01:40:44.393Z,63.70
2018-05-21T01:43:11.973Z,63.60
2018-05-21T01:45:40.723Z,64.80
2018-05-21T01:48:08.206Z,64.70
2018-05-21T01:50:36.501Z,67.20
2018-05-21T01:53:04.026Z,67.10
2018-05-21T01:55:31.604Z,68.30
2018-05-21T01:57:59.871Z,74.50
2018-05-21T02:00:28.148Z,72.40
2018-05-21T02:02:56.721Z,72.20
2018-05-21T02:05:24.237Z,72.20
2018-05-21T02:07:51.759Z,74.00
2018-05-21T02:10:20.439Z,70.50
2018-05-21T02:12:48.720Z,70.30
2018-05-21T02:15:16.973Z,70.10
2018-05-21T02:17:44.627Z,70.00
2018-05-21T02:20:12.100Z,68.30
2018-05-21T02:22:40.426Z,68.50
2018-05-21T02:25:07.935Z,68.40
2018-05-21T02:27:35.451Z,69.80
2018-05-21T02:30:02.972Z,69.70
2018-05-21T02:32:31.255Z,71.40
2018-05-21T02:34:58.901Z,71.40
2018-05-21T02:37:27.193Z,71.00
2018-05-21T02:39:55.445Z,72.30
2018-05-21T02:42:23.744Z,72.30
2018-05-21T02:44:52.066Z,70.20
2018-05-21T02:47:19.560Z,70.10
2018-05-21T02:49:47.877Z,64.40
2018-05-21T02:52:16.112Z,66.20
2018-05-21T02:54:44.397Z,67.20
2018-05-21T02:57:12.663Z,68.20
2018-05-21T02:59:40.919Z,69.20
2018-05-21T03:02:08.511Z,69.20
2018-05-21T03:04:36.033Z,69.50
2018-05-21T03:07:03.623Z,68.50
2018-05-21T03:09:31.889Z,64.80
2018-05-21T03:11:59.392Z,64.70
2018-05-21T03:14:26.888Z,63.60
2018-05-21T03:16:54.404Z,62.00
2018-05-21T03:19:22.324Z,62.90
2018-05-21T03:21:50.611Z,62.20
2018-05-21T03:24:19.026Z,62.00
2018-05-21T03:26:46.530Z,62.00
2018-05-21T03:29:14.143Z,62.70
2018-05-21T03:31:41.662Z,63.20
2018-05-21T03:34:10.112Z,64.60
2018-05-21T03:36:37.606Z,64.60
2018-05-21T03:39:05.872Z,61.40
2018-05-21T03:41:33.438Z,61.20
2018-05-21T03:44:01.732Z,59.30
2018-05-21T03:46:29.286Z,59.30
2018-05-21T03:48:57.550Z,58.10
2018-05-21T03:51:25.830Z,57.90
2018-05-21T03:53:54.144Z,57.50
2018-05-21T03:56:22.074Z,57.40
2018-05-21T03:59:02.168Z,57.00
2018-05-21T04:04:36.969Z,56.80
2018-05-21T04:07:04.501Z,56.80
2018-05-21T04:09:32.053Z,56.70
2018-05-21T04:11:59.926Z,56.90
2018-05-21T04:14:28.141Z,56.50
2018-05-21T04:16:56.408Z,56.60
2018-05-21T04:19:23.912Z,56.60
2018-05-21T04:21:51.398Z,56.70
2018-05-21T04:24:20.137Z,56.20
2018-05-21T04:26:47.629Z,56.80
2018-05-21T04:29:15.128Z,57.80
2018-05-21T04:31:43.512Z,56.20
2018-05-21T04:34:11.761Z,56.90
2018-05-21T04:36:39.308Z,56.90
2018-05-21T04:39:06.841Z,56.00
2018-05-21T04:41:34.329Z,56.80
2018-05-21T04:44:01.921Z,56.90
2018-05-21T04:46:40.101Z,59.10
2018-05-21T04:49:07.693Z,59.10
2018-05-21T04:51:36.269Z,60.10
2018-05-21T04:54:04.554Z,61.40
2018-05-21T04:56:32.864Z,62.80
2018-05-21T04:59:00.405Z,62.70
2018-05-21T05:01:27.911Z,63.20
2018-05-21T05:03:55.504Z,63.50
2018-05-21T05:06:23.755Z,63.20
2018-05-21T05:08:51.248Z,63.00
2018-05-21T05:11:18.784Z,63.30
2018-05-21T05:13:46.256Z,63.40
2018-05-21T05:16:14.577Z,64.60
2018-05-21T05:18:42.069Z,64.40
2018-05-21T05:21:09.662Z,64.50
2018-05-21T05:23:37.085Z,65.00
2018-05-21T05:26:04.671Z,64.70
2018-05-21T05:28:32.228Z,65.00
2018-05-21T05:31:00.604Z,64.70
2018-05-21T05:33:28.881Z,64.60
2018-05-21T05:35:57.252Z,64.10
2018-05-21T05:38:25.449Z,63.70
2018-05-21T05:40:53.054Z,63.70
2018-05-21T05:43:20.554Z,63.70
2018-05-21T05:45:48.834Z,64.70
2018-05-21T05:48:16.333Z,64.60
2018-05-21T05:50:43.860Z,65.20
2018-05-21T05:53:11.396Z,65.80
2018-05-21T05:55:40.259Z,66.50
2018-05-21T05:58:07.908Z,66.50
2018-05-21T06:00:35.414Z,67.20
2018-05-21T06:03:03.732Z,67.00
2018-05-21T06:05:31.297Z,67.00
2018-05-21T06:07:58.834Z,66.40
2018-05-21T06:10:27.188Z,66.90
2018-05-21T06:12:55.448Z,66.00
2018-05-21T06:15:23.733Z,65.90
2018-05-21T06:17:52.015Z,64.80
2018-05-21T06:20:20.507Z,64.70
2018-05-21T06:22:48.000Z,64.70
2018-05-21T06:25:15.635Z,64.10
2018-05-21T06:27:43.968Z,62.60
2018-05-21T06:30:11.476Z,62.40
2018-05-21T06:32:39.892Z,62.70
2018-05-21T06:35:07.476Z,60.80
2018-05-21T06:37:35.858Z,60.90
2018-05-21T06:40:15.236Z,61.90
2018-05-21T06:42:42.731Z,61.80
2018-05-21T06:45:10.992Z,61.10
2018-05-21T06:47:38.537Z,61.10
2018-05-21T06:50:05.988Z,60.90
2018-05-21T06:52:33.478Z,61.10
2018-05-21T06:55:01.881Z,59.60
2018-05-21T06:57:30.156Z,60.10
2018-05-21T06:59:58.434Z,59.60
2018-05-21T07:02:27.025Z,59.70
2018-05-21T07:04:55.392Z,58.10
2018-05-21T07:07:23.648Z,57.40
2018-05-21T07:09:52.652Z,59.00
2018-05-21T07:12:20.918Z,58.20
2018-05-21T07:14:48.490Z,57.70
2018-05-21T07:17:16.816Z,59.00
2018-05-21T07:19:44.381Z,58.90
2018-05-21T07:22:11.863Z,58.70
2018-05-21T07:24:40.175Z,60.50
2018-05-21T07:27:07.655Z,60.50
2018-05-21T07:29:35.203Z,61.70
2018-05-21T07:32:02.698Z,60.50
2018-05-21T07:34:30.190Z,58.10
2018-05-21T07:36:58.456Z,59.50
2018-05-21T07:39:26.022Z,59.50
2018-05-21T07:41:53.517Z,59.70
2018-05-21T07:44:21.001Z,59.70
2018-05-21T07:46:48.522Z,58.10
2018-05-21T07:49:16.124Z,58.10
2018-05-21T07:51:43.653Z,57.60
2018-05-21T07:54:11.160Z,57.90
2018-05-21T07:56:38.657Z,58.10
2018-05-21T07:59:06.229Z,57.90
2018-05-21T08:01:33.720Z,57.50
2018-05-21T08:04:01.253Z,58.60
2018-05-21T08:06:28.762Z,56.50
2018-05-21T08:08:57.036Z,57.90
2018-05-21T08:11:25.296Z,57.50
2018-05-21T08:13:52.771Z,57.40
2018-05-21T08:16:21.130Z,55.90
2018-05-21T08:18:49.023Z,55.90
2018-05-21T08:21:16.648Z,56.50
2018-05-21T08:23:44.143Z,54.90
2018-05-21T08:26:12.414Z,52.90
2018-05-21T08:28:40.744Z,53.70
2018-05-21T08:31:08.256Z,53.70
2018-05-21T08:33:36.520Z,52.20
2018-05-21T08:36:05.208Z,51.40
2018-05-21T08:38:33.788Z,50.90
2018-05-21T08:41:02.071Z,51.30
2018-05-21T08:43:29.638Z,51.30
2018-05-21T08:45:57.974Z,53.40
2018-05-21T08:48:25.778Z,53.40
2018-05-21T08:50:54.037Z,53.40
2018-05-21T08:53:22.355Z,52.00
2018-05-21T08:55:49.867Z,52.00
2018-05-21T08:58:18.202Z,54.70
2018-05-21T09:00:45.820Z,54.20
2018-05-21T09:03:14.052Z,54.80
2018-05-21T09:05:41.553Z,54.80
2018-05-21T09:08:09.828Z,51.50
2018-05-21T09:10:38.084Z,52.10
2018-05-21T09:13:06.500Z,52.10
2018-05-21T09:15:34.300Z,52.10
2018-05-21T09:18:01.906Z,49.10
2018-05-21T09:20:30.292Z,49.80
2018-05-21T09:22:58.582Z,50.10
2018-05-21T09:25:26.072Z,50.10
2018-05-21T09:27:53.715Z,48.90
2018-05-21T09:30:21.208Z,49.00
2018-05-21T09:32:48.744Z,49.20
2018-05-21T09:35:16.308Z,48.30
2018-05-21T09:37:44.044Z,46.60
2018-05-21T09:40:11.828Z,46.40
2018-05-21T09:42:39.358Z,45.70
2018-05-21T09:45:06.902Z,47.10
2018-05-21T09:47:34.482Z,46.70
2018-05-21T09:50:01.984Z,46.50
2018-05-21T09:52:29.572Z,49.50
2018-05-21T09:54:57.960Z,47.10
2018-05-21T09:57:25.656Z,47.10
2018-05-21T09:59:53.161Z,46.50
2018-05-21T10:02:21.530Z,49.20
2018-05-21T10:04:49.828Z,49.90
2018-05-21T10:07:17.500Z,49.20
2018-05-21T10:09:45.037Z,48.80
2018-05-21T10:12:12.513Z,49.70
2018-05-21T10:14:41.081Z,49.80
2018-05-21T10:17:10.080Z,44.60
2018-05-21T10:19:37.601Z,44.60
2018-05-21T10:22:05.184Z,46.60
2018-05-21T10:24:33.474Z,44.70
2018-05-21T10:27:00.999Z,44.80
2018-05-21T10:29:30.116Z,42.10
2018-05-21T10:31:58.413Z,43.50
2018-05-21T10:34:25.927Z,43.50
2018-05-21T10:36:53.567Z,43.10
2018-05-21T10:39:21.102Z,42.70
2018-05-21T10:41:48.937Z,42.70
2018-05-21T10:44:17.209Z,41.60
2018-05-21T10:46:45.480Z,41.50
2018-05-21T10:49:13.733Z,42.00
2018-05-21T10:51:41.219Z,41.90
2018-05-21T10:54:09.581Z,42.40
2018-05-21T10:56:37.056Z,42.40
2018-05-21T10:59:05.415Z,41.20
2018-05-21T11:01:32.974Z,41.10
2018-05-21T11:04:00.507Z,40.50
2018-05-21T11:06:28.013Z,41.70
2018-05-21T11:08:55.597Z,42.80
2018-05-21T11:11:23.141Z,41.30
2018-05-21T11:13:50.837Z,40.70
2018-05-21T11:16:18.404Z,41.10
2018-05-21T11:18:46.857Z,40.50
2018-05-21T11:21:15.661Z,40.80
2018-05-21T11:23:43.158Z,40.60
2018-05-21T11:26:11.547Z,40.40
2018-05-21T11:28:40.054Z,41.20
2018-05-21T11:31:07.589Z,41.20
2018-05-21T11:33:35.900Z,41.30
2018-05-21T11:36:03.386Z,41.30
2018-05-21T11:38:30.880Z,39.60
2018-05-21T11:40:59.218Z,39.20
2018-05-21T11:43:26.910Z,39.20
2018-05-21T11:45:55.532Z,39.40
2018-05-21T11:48:23.564Z,39.40
2018-05-21T11:50:51.996Z,39.20
2018-05-21T11:53:22.976Z,39.20
2018-05-21T11:55:51.329Z,38.70
2018-05-21T11:58:18.860Z,38.60
2018-05-21T12:00:46.436Z,38.10
2018-05-21T12:03:13.996Z,37.90
2018-05-21T12:05:41.464Z,39.50
2018-05-21T12:08:08.980Z,39.30
2018-05-21T12:10:36.493Z,39.80
2018-05-21T12:13:04.115Z,39.60
2018-05-21T12:15:31.614Z,39.00
2018-05-21T12:17:59.106Z,40.00
2018-05-21T12:20:27.405Z,40.50
2018-05-21T12:22:55.021Z,40.50
2018-05-21T12:25:23.323Z,42.40
2018-05-21T12:27:50.885Z,41.70
2018-05-21T12:30:18.377Z,41.70
2018-05-21T12:32:45.977Z,40.80
2018-05-21T12:35:14.239Z,41.20
2018-05-21T12:37:41.945Z,41.20
2018-05-21T12:40:09.487Z,40.30
2018-05-21T12:42:36.981Z,39.60
2018-05-21T12:45:04.574Z,39.70
2018-05-21T12:47:32.465Z,40.30
2018-05-21T12:49:59.985Z,39.50
2018-05-21T12:52:27.480Z,40.60
2018-05-21T12:54:55.015Z,40.30
2018-05-21T12:57:22.507Z,41.30
2018-05-21T12:59:50.258Z,41.00
2018-05-21T13:02:18.531Z,40.70
2018-05-21T13:04:46.861Z,40.20
2018-05-21T13:07:14.399Z,40.10
2018-05-21T13:09:41.900Z,40.30
2018-05-21T13:12:09.441Z,41.20
2018-05-21T13:14:36.944Z,41.30
2018-05-21T13:17:04.597Z,41.50
2018-05-21T13:19:33.593Z,42.70
2018-05-21T13:22:02.007Z,42.60
2018-05-21T13:24:29.529Z,42.60
2018-05-21T13:26:57.805Z,43.60
2018-05-21T13:29:26.182Z,43.40
2018-05-21T13:31:54.458Z,44.00
2018-05-21T13:34:22.731Z,44.20
2018-05-21T13:36:51.002Z,43.90
2018-05-21T13:39:20.965Z,43.60
2018-05-21T13:41:48.487Z,43.60
2018-05-21T13:44:16.745Z,44.50
2018-05-21T13:46:45.029Z,44.70
2018-05-21T13:49:13.314Z,42.90
2018-05-21T13:51:42.009Z,44.30
2018-05-21T13:54:10.341Z,44.30
2018-05-21T13:56:37.923Z,45.00
2018-05-21T13:59:06.312Z,44.00
2018-05-21T14:01:34.576Z,44.70
2018-05-21T14:04:02.085Z,44.80
2018-05-21T14:06:29.566Z,44.10
2018-05-21T14:08:57.044Z,43.30
2018-05-21T14:11:25.371Z,43.90
2018-05-21T14:13:52.848Z,43.80
2018-05-21T14:16:20.435Z,45.90
2018-05-21T14:18:47.856Z,46.00
2018-05-21T14:21:17.073Z,44.90
2018-05-21T14:23:44.564Z,44.30
2018-05-21T14:26:12.832Z,45.60
2018-05-21T14:28:41.127Z,44.10
2018-05-21T14:31:08.629Z,44.10
2018-05-21T14:33:36.175Z,45.00
2018-05-21T14:36:03.679Z,46.00
2018-05-21T14:38:32.106Z,44.80
2018-05-21T14:41:00.450Z,44.90
2018-05-21T14:43:28.920Z,45.70
2018-05-21T14:45:57.297Z,44.60
2018-05-21T14:48:25.820Z,45.90
2018-05-21T14:50:54.937Z,43.10
2018-05-21T14:53:22.428Z,43.00
2018-05-21T14:55:50.693Z,43.30
2018-05-21T14:58:18.273Z,43.30
2018-05-21T15:00:46.655Z,42.90
2018-05-21T15:03:14.943Z,43.60
2018-05-21T15:05:42.460Z,43.60
2018-05-21T15:08:09.968Z,42.60
2018-05-21T15:10:37.445Z,42.50
2018-05-21T15:13:04.989Z,43.30
2018-05-21T15:15:32.494Z,43.10
2018-05-21T15:18:00.029Z,43.00
2018-05-21T15:20:27.526Z,43.90
2018-05-21T15:22:56.445Z,43.40
2018-05-21T15:25:23.955Z,43.40
2018-05-21T15:27:52.252Z,42.80
2018-05-21T15:30:20.560Z,43.90
2018-05-21T15:32:48.092Z,43.90
2018-05-21T15:35:16.377Z,43.10
2018-05-21T15:37:43.907Z,43.10
2018-05-21T15:40:11.483Z,42.90
2018-05-21T15:42:40.013Z,43.30
2018-05-21T15:45:07.517Z,43.20
2018-05-21T15:47:35.876Z,42.90
2018-05-21T15:50:03.343Z,42.90
2018-05-21T15:52:31.737Z,43.80
2018-05-21T15:54:59.987Z,43.80
2018-05-21T15:57:27.535Z,43.80
2018-05-21T15:59:55.768Z,42.90
2018-05-21T16:02:23.276Z,44.10
2018-05-21T16:04:50.789Z,43.40
2018-05-21T16:07:18.301Z,44.10
2018-05-21T16:09:46.682Z,43.90
2018-05-21T16:12:14.231Z,43.80
2018-05-21T16:14:42.524Z,43.30
2018-05-21T16:17:11.941Z,45.10
2018-05-21T16:19:39.540Z,45.00
2018-05-21T16:22:09.018Z,44.80
2018-05-21T16:24:36.942Z,43.50
2018-05-21T16:27:04.524Z,43.90
2018-05-21T16:29:32.793Z,44.40
2018-05-21T16:32:00.864Z,44.40
2018-05-21T16:34:29.172Z,43.30
2018-05-21T16:36:56.831Z,43.20
2018-05-21T16:39:24.316Z,43.00
2018-05-21T16:41:51.851Z,42.20
2018-05-21T16:44:19.629Z,42.70
2018-05-21T16:46:47.581Z,43.50
2018-05-21T16:49:15.164Z,43.40
2018-05-21T16:51:42.725Z,45.00
2018-05-21T16:54:10.617Z,43.70
2018-05-21T16:56:38.191Z,43.60
2018-05-21T16:59:07.306Z,44.00
2018-05-21T17:01:36.629Z,42.80
2018-05-21T17:04:04.131Z,42.80
2018-05-21T17:06:31.820Z,44.80
2018-05-21T17:08:59.645Z,45.10
2018-05-21T17:11:27.178Z,42.40
2018-05-21T17:13:54.748Z,42.90
2018-05-21T17:16:23.380Z,43.30
2018-05-21T17:18:51.843Z,42.10
2018-05-21T17:21:20.160Z,43.60
2018-05-21T17:23:47.657Z,43.70
2018-05-21T17:26:15.163Z,43.00
2018-05-21T17:28:42.733Z,41.90
2018-05-21T17:31:10.205Z,41.50
2018-05-21T17:33:37.713Z,41.50
2018-05-21T17:36:06.083Z,43.60
2018-05-21T17:38:34.369Z,43.20
2018-05-21T17:41:02.639Z,44.70
2018-05-21T17:43:30.916Z,44.40
2018-05-21T17:45:59.172Z,44.20
2018-05-21T17:48:26.666Z,44.20
2018-05-21T17:50:54.160Z,44.60
2018-05-21T17:53:21.638Z,45.00
2018-05-21T17:55:49.164Z,44.30
2018-05-21T17:58:16.652Z,44.40
2018-05-21T18:00:44.365Z,44.80
2018-05-21T18:03:12.327Z,44.70
2018-05-21T18:05:39.865Z,44.80
2018-05-21T18:08:08.145Z,45.50
2018-05-21T18:10:36.423Z,45.50
2018-05-21T18:13:04.678Z,45.60
2018-05-21T18:15:32.540Z,45.60
2018-05-21T18:18:00.872Z,46.20
2018-05-21T18:20:28.502Z,46.20
2018-05-21T18:23:07.285Z,46.90
2018-05-21T18:25:35.107Z,46.80
2018-05-21T18:28:02.659Z,46.90
2018-05-21T18:30:30.210Z,47.20
2018-05-21T18:32:58.585Z,48.10
2018-05-21T18:35:26.075Z,48.00
2018-05-21T18:37:53.575Z,48.10
2018-05-21T18:40:21.171Z,48.50
2018-05-21T18:42:49.013Z,48.80
2018-05-21T18:45:16.541Z,49.00
2018-05-21T18:47:44.038Z,49.30
2018-05-21T18:50:12.390Z,49.40
2018-05-21T18:52:39.953Z,49.40
2018-05-21T18:55:07.552Z,49.60
2018-05-21T18:57:35.095Z,49.60
2018-05-21T19:00:03.410Z,50.80
2018-05-21T19:02:30.937Z,50.00
2018-05-21T19:04:58.509Z,50.30
2018-05-21T19:07:26.105Z,50.70
2018-05-21T19:09:54.449Z,50.40
2018-05-21T19:12:21.952Z,51.70
2018-05-21T19:14:50.230Z,50.90
2018-05-21T19:17:28.712Z,51.40
2018-05-21T19:19:56.232Z,51.70
2018-05-21T19:22:24.633Z,51.80
2018-05-21T19:25:03.989Z,51.80
2018-05-21T19:27:31.894Z,51.80
2018-05-21T19:29:59.914Z,51.70
2018-05-21T19:32:28.364Z,51.60
2018-05-21T19:34:56.953Z,51.30
2018-05-21T19:37:26.538Z,52.00
2018-05-21T19:39:59.978Z,51.90
2018-05-21T19:42:30.560Z,52.40
2018-05-21T19:44:58.848Z,53.40
2018-05-21T19:47:27.156Z,54.20
2018-05-21T19:50:08.550Z,54.10
2018-05-21T19:52:36.102Z,53.90
2018-05-21T19:55:03.716Z,54.30
2018-05-21T19:57:31.698Z,54.60
2018-05-21T19:59:59.997Z,55.00
2018-05-21T20:02:28.259Z,55.00
2018-05-21T20:04:55.834Z,55.00
2018-05-21T20:07:33.357Z,55.10
2018-05-21T20:10:00.861Z,55.00
2018-05-21T20:12:29.231Z,54.70
2018-05-21T20:14:57.595Z,55.20
2018-05-21T20:17:25.083Z,55.20
2018-05-21T20:19:53.378Z,55.30
2018-05-21T20:22:20.884Z,55.40
2018-05-21T20:24:48.457Z,55.60
2018-05-21T20:27:20.928Z,55.80
2018-05-21T20:29:48.425Z,55.90
2018-05-21T20:32:15.948Z,56.00
2018-05-21T20:34:44.224Z,56.20
2018-05-21T20:37:12.979Z,56.40
2018-05-21T20:39:41.193Z,56.60
2018-05-21T20:42:09.477Z,56.60
2018-05-21T20:44:37.732Z,56.70
2018-05-21T20:47:06.112Z,56.90
2018-05-21T20:49:34.382Z,57.20
2018-05-21T20:52:01.891Z,57.20
2018-05-21T20:54:29.449Z,57.10
2018-05-21T20:56:56.956Z,57.20
2018-05-21T20:59:24.494Z,57.60
2018-05-21T21:01:51.992Z,57.70
2018-05-21T21:04:19.552Z,58.00
2018-05-21T21:06:47.023Z,58.10
2018-05-21T21:09:14.513Z,58.40
2018-05-21T21:11:42.022Z,58.80
2018-05-21T21:14:10.307Z,58.90
2018-05-21T21:16:39.118Z,59.10
2018-05-21T21:19:19.045Z,59.10
2018-05-21T21:21:48.214Z,59.30
2018-05-21T21:24:15.758Z,59.30
2018-05-21T21:26:43.355Z,59.70
2018-05-21T21:29:11.095Z,60.10
2018-05-21T21:31:40.348Z,60.90
2018-05-21T21:34:08.129Z,61.00
2018-05-21T21:36:35.744Z,60.60
2018-05-21T21:39:04.001Z,60.40
2018-05-21T21:41:32.146Z,60.30
2018-05-21T21:43:59.705Z,60.40
2018-05-21T21:46:27.307Z,60.80
2018-05-21T21:48:54.869Z,60.20
2018-05-21T21:51:23.517Z,60.60
2018-05-21T21:53:50.996Z,61.00
2018-05-21T21:56:19.585Z,62.00
2018-05-21T21:58:48.051Z,61.40
2018-05-21T22:01:17.041Z,61.80
2018-05-21T22:03:44.605Z,61.80
2018-05-21T22:06:12.897Z,62.00
2018-05-21T22:08:41.177Z,62.40
2018-05-21T22:11:09.433Z,63.20
2018-05-21T22:13:36.969Z,63.20
2018-05-21T22:16:04.511Z,63.10
2018-05-21T22:18:32.181Z,62.80
2018-05-21T22:20:59.721Z,63.60
2018-05-21T22:23:27.217Z,63.50
2018-05-21T22:25:54.761Z,63.30
2018-05-21T22:28:22.277Z,62.20
2018-05-21T22:30:49.893Z,64.20
2018-05-21T22:33:17.479Z,63.90
2018-05-21T22:35:45.729Z,63.50
2018-05-21T22:38:14.009Z,63.80
2018-05-21T22:40:43.001Z,63.90
2018-05-21T22:43:10.501Z,63.80
2018-05-21T22:45:38.037Z,63.90
2018-05-21T22:48:06.412Z,63.70
2018-05-21T22:50:34.671Z,63.90
2018-05-21T22:53:02.943Z,63.90
2018-05-21T22:55:31.953Z,63.90
2018-05-21T22:57:59.433Z,63.80
2018-05-21T23:00:33.439Z,63.80
2018-05-21T23:03:01.740Z,63.50
2018-05-21T23:05:29.233Z,63.50
2018-05-21T23:07:57.498Z,63.70
2018-05-21T23:10:24.992Z,63.70
2018-05-21T23:12:53.261Z,63.40
2018-05-21T23:15:21.517Z,65.10
2018-05-21T23:17:49.105Z,65.10
2018-05-21T23:20:17.386Z,66.50
2018-05-21T23:22:44.886Z,66.50
2018-05-21T23:25:12.387Z,66.30
2018-05-21T23:27:39.885Z,66.40
2018-05-21T23:30:07.505Z,65.90
2018-05-21T23:32:35.009Z,65.80
2018-05-21T23:35:02.505Z,66.10
2018-05-21T23:37:30.017Z,65.30
2018-05-21T23:39:57.500Z,65.10
2018-05-21T23:42:25.019Z,63.80
2018-05-21T23:44:52.563Z,63.50
2018-05-21T23:47:20.854Z,66.60
2018-05-21T23:49:48.531Z,66.50
2018-05-21T23:52:16.016Z,67.00
2018-05-21T23:54:43.570Z,66.30
2018-05-21T23:57:11.185Z,64.10
2018-05-21T23:59:39.688Z,64.30
